Time,TemperatureF,DewpointF,PressureIn,WindDirection,WindDirectionDegrees,WindSpeedMPH,WindSpeedGustMPH,Humidity,HourlyPrecipIn,Conditions,Clouds,dailyrainin,SolarRadiationWatts/m^2,SoftwareType,DateUTC
2013-12-11 00:02:00,-14.0,-20.0,-100.00,WNW,292,7.0,10.0,72,0.00,,,0.00,0.000000,,2013-12-11 06:02:00,
2013-12-11 00:42:00,-13.0,-20.0,-100.00,WNW,286,6.0,10.0,70,0.00,,,0.00,0.000000,,2013-12-11 06:42:00,
2013-12-11 00:52:00,-13.0,-20.0,-100.00,WNW,286,6.0,10.0,70,0.00,,,0.00,0.000000,,2013-12-11 06:52:00,
2013-12-11 01:02:00,-13.0,-20.0,-100.00,WNW,286,6.0,10.0,70,0.00,,,0.00,0.000000,,2013-12-11 07:02:00,
2013-12-11 01:43:00,-14.0,-21.0,-100.00,WNW,293,7.0,11.0,69,0.00,,,0.00,0.000000,,2013-12-11 07:43:00,
2013-12-11 01:52:00,-14.0,-21.0,-100.00,WNW,293,7.0,11.0,69,0.00,,,0.00,0.000000,,2013-12-11 07:52:00,
2013-12-11 02:02:00,-14.0,-21.0,-100.00,WNW,293,7.0,11.0,69,0.00,,,0.00,0.000000,,2013-12-11 08:02:00,
2013-12-11 02:22:00,-15.0,-22.0,-100.00,West,281,5.0,11.0,68,0.00,,,0.00,0.000000,,2013-12-11 08:22:00,
2013-12-11 02:32:00,-15.0,-22.0,-100.00,West,281,5.0,11.0,68,0.00,,,0.00,0.000000,,2013-12-11 08:32:00,
2013-12-11 02:42:00,-15.0,-22.0,-100.00,West,281,5.0,11.0,68,0.00,,,0.00,0.000000,,2013-12-11 08:42:00,
2013-12-11 02:52:00,-15.0,-22.0,-100.00,West,281,5.0,11.0,68,0.00,,,0.00,0.000000,,2013-12-11 08:52:00,
2013-12-11 03:02:00,-15.0,-22.0,-100.00,West,281,5.0,11.0,68,0.00,,,0.00,0.000000,,2013-12-11 09:02:00,
2013-12-11 03:43:00,-17.0,-25.0,-100.00,West,278,4.0,8.0,67,0.00,,,-99.99,0.000000,,2013-12-11 09:43:00,
2013-12-11 03:54:00,-17.0,-25.0,-100.00,West,278,4.0,8.0,67,0.00,,,-99.99,0.000000,,2013-12-11 09:54:00,
2013-12-11 04:03:00,-17.0,-25.0,-100.00,West,278,4.0,8.0,67,0.00,,,-99.99,0.000000,,2013-12-11 10:03:00,
2013-12-11 04:43:00,-19.0,-27.0,-100.00,West,280,5.0,8.0,66,0.00,,,0.00,0.000000,,2013-12-11 10:43:00,
2013-12-11 04:53:00,-19.0,-27.0,-100.00,West,280,5.0,8.0,66,0.00,,,0.00,0.000000,,2013-12-11 10:53:00,
2013-12-11 05:03:00,-19.0,-27.0,-100.00,West,280,5.0,8.0,66,0.00,,,0.00,0.000000,,2013-12-11 11:03:00,
2013-12-11 05:42:00,-19.0,-27.0,-100.00,WNW,290,6.0,9.0,67,0.00,,,0.00,0.000000,,2013-12-11 11:42:00,
2013-12-11 05:53:00,-19.0,-27.0,-100.00,WNW,290,6.0,9.0,67,0.00,,,0.00,0.000000,,2013-12-11 11:53:00,
2013-12-11 06:02:00,-19.0,-27.0,-100.00,WNW,290,6.0,9.0,67,0.00,,,0.00,0.000000,,2013-12-11 12:02:00,
2013-12-11 06:42:00,-19.0,-27.0,-100.00,West,279,6.0,9.0,66,0.00,,,-99.99,0.000000,,2013-12-11 12:42:00,
2013-12-11 06:52:00,-19.0,-27.0,-100.00,West,279,6.0,9.0,66,0.00,,,-99.99,0.000000,,2013-12-11 12:52:00,
2013-12-11 07:02:00,-19.0,-27.0,-100.00,West,279,6.0,9.0,66,0.00,,,-99.99,0.000000,,2013-12-11 13:02:00,
2013-12-11 07:42:00,-21.0,-29.0,-100.00,WSW,247,5.0,8.0,64,0.00,,,0.00,0.000000,,2013-12-11 13:42:00,
2013-12-11 07:52:00,-21.0,-29.0,-100.00,WSW,247,5.0,8.0,64,0.00,,,0.00,0.000000,,2013-12-11 13:52:00,
2013-12-11 08:02:00,-21.0,-29.0,-100.00,WSW,247,5.0,8.0,64,0.00,,,0.00,0.000000,,2013-12-11 14:02:00,
2013-12-11 08:42:00,-21.0,-29.0,-100.00,WSW,246,5.0,9.0,64,0.00,,,-99.99,3.000000,,2013-12-11 14:42:00,
2013-12-11 08:52:00,-21.0,-29.0,-100.00,WSW,246,5.0,9.0,64,0.00,,,-99.99,3.000000,,2013-12-11 14:52:00,
2013-12-11 09:02:00,-21.0,-29.0,-100.00,WSW,246,5.0,9.0,64,0.00,,,-99.99,3.000000,,2013-12-11 15:02:00,
2013-12-11 09:04:00,-17.0,-26.0,-100.00,WSW,254,6.0,10.0,62,0.00,,,0.00,29.000000,,2013-12-11 15:04:00,
2013-12-11 09:43:00,-17.0,-26.0,-100.00,WSW,254,6.0,10.0,62,0.00,,,0.00,29.000000,,2013-12-11 15:43:00,
2013-12-11 09:54:00,-17.0,-26.0,-100.00,WSW,254,6.0,10.0,62,0.00,,,0.00,29.000000,,2013-12-11 15:54:00,
2013-12-11 10:43:00,-12.0,-22.0,-100.00,West,275,5.0,10.0,61,0.00,,,0.00,72.000000,,2013-12-11 16:43:00,
2013-12-11 10:53:00,-12.0,-22.0,-100.00,West,275,5.0,10.0,61,0.00,,,0.00,72.000000,,2013-12-11 16:53:00,
2013-12-11 11:02:00,-12.0,-22.0,-100.00,West,275,5.0,10.0,61,0.00,,,0.00,72.000000,,2013-12-11 17:02:00,
2013-12-11 11:43:00,-9.0,-19.0,-100.00,WSW,251,8.0,13.0,61,0.00,,,0.00,178.000000,,2013-12-11 17:43:00,
2013-12-11 11:52:00,-9.0,-19.0,-100.00,WSW,251,8.0,13.0,61,0.00,,,0.00,178.000000,,2013-12-11 17:52:00,
2013-12-11 12:02:00,-9.0,-19.0,-100.00,WSW,251,8.0,13.0,61,0.00,,,0.00,178.000000,,2013-12-11 18:02:00,
2013-12-11 12:22:00,-7.0,-18.0,-100.00,West,277,11.0,16.0,59,0.00,,,0.00,288.000000,,2013-12-11 18:22:00,
2013-12-11 12:32:00,-7.0,-18.0,-100.00,West,277,11.0,16.0,59,0.00,,,0.00,288.000000,,2013-12-11 18:32:00,
2013-12-11 12:43:00,-7.0,-18.0,-100.00,West,277,11.0,16.0,59,0.00,,,0.00,288.000000,,2013-12-11 18:43:00,
2013-12-11 12:52:00,-7.0,-18.0,-100.00,West,277,11.0,16.0,59,0.00,,,0.00,288.000000,,2013-12-11 18:52:00,
2013-12-11 13:02:00,-7.0,-18.0,-100.00,West,277,11.0,16.0,59,0.00,,,0.00,288.000000,,2013-12-11 19:02:00,
2013-12-11 13:42:00,-4.0,-15.0,-100.00,West,260,8.0,18.0,58,0.00,,,0.00,313.000000,,2013-12-11 19:42:00,
2013-12-11 13:52:00,-4.0,-15.0,-100.00,West,260,8.0,18.0,58,0.00,,,0.00,313.000000,,2013-12-11 19:52:00,
2013-12-11 14:02:00,-4.0,-15.0,-100.00,West,260,8.0,18.0,58,0.00,,,0.00,313.000000,,2013-12-11 20:02:00,
2013-12-11 14:43:00,-2.0,-13.0,-100.00,West,265,9.0,15.0,57,0.00,,,0.00,310.000000,,2013-12-11 20:43:00,
2013-12-11 14:52:00,-2.0,-13.0,-100.00,West,265,9.0,15.0,57,0.00,,,0.00,310.000000,,2013-12-11 20:52:00,
2013-12-11 15:02:00,-2.0,-13.0,-100.00,West,265,9.0,15.0,57,0.00,,,0.00,310.000000,,2013-12-11 21:02:00,
2013-12-11 15:22:00,-2.0,-13.0,-100.00,SW,235,9.0,14.0,57,0.00,,,0.00,218.000000,,2013-12-11 21:22:00,
2013-12-11 15:33:00,-2.0,-13.0,-100.00,SW,235,9.0,14.0,57,0.00,,,0.00,218.000000,,2013-12-11 21:33:00,
2013-12-11 15:43:00,-2.0,-13.0,-100.00,SW,235,9.0,14.0,57,0.00,,,0.00,218.000000,,2013-12-11 21:43:00,
2013-12-11 15:53:00,-2.0,-13.0,-100.00,SW,235,9.0,14.0,57,0.00,,,0.00,218.000000,,2013-12-11 21:53:00,
2013-12-11 16:03:00,-2.0,-13.0,-100.00,SW,235,9.0,14.0,57,0.00,,,0.00,218.000000,,2013-12-11 22:03:00,
2013-12-11 16:23:00,-5.0,-15.0,-100.00,WSW,239,8.0,14.0,61,0.00,,,0.00,80.000000,,2013-12-11 22:23:00,
2013-12-11 16:33:00,-5.0,-15.0,-100.00,WSW,239,8.0,14.0,61,0.00,,,0.00,80.000000,,2013-12-11 22:33:00,
2013-12-11 16:42:00,-5.0,-15.0,-100.00,WSW,239,8.0,14.0,61,0.00,,,0.00,80.000000,,2013-12-11 22:42:00,
2013-12-11 16:53:00,-5.0,-15.0,-100.00,WSW,239,8.0,14.0,61,0.00,,,0.00,80.000000,,2013-12-11 22:53:00,
2013-12-11 17:02:00,-5.0,-15.0,-100.00,WSW,239,8.0,14.0,61,0.00,,,0.00,80.000000,,2013-12-11 23:02:00,
2013-12-11 17:43:00,-8.0,-16.0,-100.00,SW,230,7.0,14.0,67,0.00,,,0.00,2.000000,,2013-12-11 23:43:00,
2013-12-11 17:52:00,-8.0,-16.0,-100.00,SW,230,7.0,14.0,67,0.00,,,0.00,2.000000,,2013-12-11 23:52:00,
2013-12-11 18:02:00,-8.0,-16.0,-100.00,SW,230,7.0,14.0,67,0.00,,,0.00,2.000000,,2013-12-12 00:02:00,
2013-12-11 18:42:00,-9.0,-17.0,-100.00,SW,224,6.0,10.0,68,0.00,,,0.00,0.000000,,2013-12-12 00:42:00,
2013-12-11 18:52:00,-9.0,-17.0,-100.00,SW,224,6.0,10.0,68,0.00,,,0.00,0.000000,,2013-12-12 00:52:00,
2013-12-11 19:01:00,-9.0,-17.0,-100.00,SW,224,6.0,10.0,68,0.00,,,0.00,0.000000,,2013-12-12 01:01:00,
2013-12-11 19:42:00,-10.0,-17.0,-100.00,SW,227,8.0,13.0,69,0.00,,,0.00,0.000000,,2013-12-12 01:42:00,
2013-12-11 19:52:00,-10.0,-17.0,-100.00,SW,227,8.0,13.0,69,0.00,,,0.00,0.000000,,2013-12-12 01:52:00,
2013-12-11 20:01:00,-10.0,-17.0,-100.00,SW,227,8.0,13.0,69,0.00,,,0.00,0.000000,,2013-12-12 02:01:00,
2013-12-11 20:52:00,-12.0,-19.0,-100.00,SSW,212,5.0,10.0,69,0.00,,,0.00,0.000000,,2013-12-12 02:52:00,
2013-12-11 21:02:00,-12.0,-19.0,-100.00,SSW,212,5.0,10.0,69,0.00,,,0.00,0.000000,,2013-12-12 03:02:00,
2013-12-11 21:44:00,-13.0,-20.0,-100.00,SSW,208,5.0,7.0,70,0.00,,,0.00,0.000000,,2013-12-12 03:44:00,
2013-12-11 21:53:00,-13.0,-20.0,-100.00,SSW,208,5.0,7.0,70,0.00,,,0.00,0.000000,,2013-12-12 03:53:00,
2013-12-11 22:03:00,-13.0,-20.0,-100.00,SSW,208,5.0,7.0,70,0.00,,,0.00,0.000000,,2013-12-12 04:03:00,
2013-12-11 22:43:00,-13.0,-20.0,-100.00,SSW,211,5.0,9.0,70,0.00,,,0.00,0.000000,,2013-12-12 04:43:00,
2013-12-11 22:53:00,-13.0,-20.0,-100.00,SSW,211,5.0,9.0,70,0.00,,,0.00,0.000000,,2013-12-12 04:53:00,
2013-12-11 23:02:00,-13.0,-20.0,-100.00,SSW,211,5.0,9.0,70,0.00,,,0.00,0.000000,,2013-12-12 05:02:00,
2013-12-11 23:43:00,-13.0,-20.0,-100.00,SW,220,5.0,8.0,69,0.00,,,0.00,0.000000,,2013-12-12 05:43:00,
2013-12-11 23:53:00,-13.0,-20.0,-100.00,SW,220,5.0,8.0,69,0.00,,,0.00,0.000000,,2013-12-12 05:53:00,